sensor_id;sensor_type;location;lat;lon;timestamp;pressure;altitude;pressure_sealevel;temperature;humidity
9721;BME280;4899;42.644;23.366;2022-08-19T00:00:10;94080.03;;;20.80;100.00
9721;BME280;4899;42.644;23.366;2022-08-19T00:02:39;94080.41;;;20.75;100.00
9721;BME280;4899;42.644;23.366;2022-08-19T00:05:08;94084.13;;;20.78;100.00
9721;BME280;4899;42.644;23.366;2022-08-19T00:07:36;94085.63;;;20.79;100.00
9721;BME280;4899;42.644;23.366;2022-08-19T00:10:05;94083.75;;;20.79;100.00
9721;BME280;4899;42.644;23.366;2022-08-19T00:12:32;94087.13;;;20.76;100.00
9721;BME280;4899;42.644;23.366;2022-08-19T00:15:00;94084.53;;;20.73;100.00
9721;BME280;4899;42.644;23.366;2022-08-19T00:17:27;94074.81;;;20.63;100.00
9721;BME280;4899;42.644;23.366;2022-08-19T00:19:54;94067.72;;;20.52;100.00
9721;BME280;4899;42.644;23.366;2022-08-19T00:22:21;94094.59;;;20.71;100.00
9721;BME280;4899;42.644;23.366;2022-08-19T00:24:48;94097.59;;;20.69;100.00
9721;BME280;4899;42.644;23.366;2022-08-19T00:27:15;94077.03;;;20.50;100.00
9721;BME280;4899;42.644;23.366;2022-08-19T00:29:41;94078.16;;;20.49;100.00
9721;BME280;4899;42.644;23.366;2022-08-19T00:32:10;94099.09;;;20.60;100.00
9721;BME280;4899;42.644;23.366;2022-08-19T00:34:37;94077.41;;;20.38;100.00
9721;BME280;4899;42.644;23.366;2022-08-19T00:37:04;94100.56;;;20.46;100.00
9721;BME280;4899;42.644;23.366;2022-08-19T00:39:31;94071.75;;;20.25;100.00
9721;BME280;4899;42.644;23.366;2022-08-19T00:41:58;94081.50;;;20.35;100.00
9721;BME280;4899;42.644;23.366;2022-08-19T00:44:26;94081.09;;;20.29;100.00
9721;BME280;4899;42.644;23.366;2022-08-19T00:46:55;94084.09;;;20.39;100.00
9721;BME280;4899;42.644;23.366;2022-08-19T00:49:25;94094.22;;;20.40;100.00
9721;BME280;4899;42.644;23.366;2022-08-19T00:51:58;94007.50;;;19.81;100.00
9721;BME280;4899;42.644;23.366;2022-08-19T00:54:26;94088.63;;;20.42;100.00
9721;BME280;4899;42.644;23.366;2022-08-19T00:56:53;94090.47;;;20.41;100.00
9721;BME280;4899;42.644;23.366;2022-08-19T00:59:20;94085.59;;;20.40;100.00
9721;BME280;4899;42.644;23.366;2022-08-19T01:01:47;94090.47;;;20.38;100.00
9721;BME280;4899;42.644;23.366;2022-08-19T01:04:14;94093.06;;;20.38;100.00
9721;BME280;4899;42.644;23.366;2022-08-19T01:06:43;94092.31;;;20.37;100.00
9721;BME280;4899;42.644;23.366;2022-08-19T01:09:10;94086.69;;;20.28;100.00
9721;BME280;4899;42.644;23.366;2022-08-19T01:11:40;94085.56;;;20.29;100.00
9721;BME280;4899;42.644;23.366;2022-08-19T01:14:09;94091.19;;;20.31;100.00
9721;BME280;4899;42.644;23.366;2022-08-19T01:16:37;94093.03;;;20.27;100.00
9721;BME280;4899;42.644;23.366;2022-08-19T01:19:10;94081.09;;;20.19;100.00
9721;BME280;4899;42.644;23.366;2022-08-19T01:21:44;94087.44;;;20.21;100.00
9721;BME280;4899;42.644;23.366;2022-08-19T01:24:15;94080.34;;;20.15;100.00
9721;BME280;4899;42.644;23.366;2022-08-19T01:26:44;94062.38;;;19.95;100.00
9721;BME280;4899;42.644;23.366;2022-08-19T01:29:11;94084.03;;;20.07;100.00
9721;BME280;4899;42.644;23.366;2022-08-19T01:31:39;94073.94;;;19.94;100.00
9721;BME280;4899;42.644;23.366;2022-08-19T01:34:07;94070.56;;;19.83;100.00
9721;BME280;4899;42.644;23.366;2022-08-19T01:36:35;94084.34;;;19.80;100.00
9721;BME280;4899;42.644;23.366;2022-08-19T01:39:05;94093.63;;;19.74;100.00
9721;BME280;4899;42.644;23.366;2022-08-19T01:41:34;94089.16;;;19.64;100.00
9721;BME280;4899;42.644;23.366;2022-08-19T01:44:03;94094.31;;;19.53;100.00
9721;BME280;4899;42.644;23.366;2022-08-19T01:46:30;94087.16;;;19.47;100.00
9721;BME280;4899;42.644;23.366;2022-08-19T01:48:57;94084.53;;;19.40;100.00
9721;BME280;4899;42.644;23.366;2022-08-19T01:51:24;94081.47;;;19.30;100.00
9721;BME280;4899;42.644;23.366;2022-08-19T01:53:51;94076.25;;;19.23;100.00
9721;BME280;4899;42.644;23.366;2022-08-19T01:56:19;94074.72;;;19.15;100.00
9721;BME280;4899;42.644;23.366;2022-08-19T01:58:51;94080.69;;;19.19;100.00
9721;BME280;4899;42.644;23.366;2022-08-19T02:01:20;94079.94;;;19.15;100.00
9721;BME280;4899;42.644;23.366;2022-08-19T02:03:47;94085.88;;;19.16;100.00
9721;BME280;4899;42.644;23.366;2022-08-19T02:06:14;94063.81;;;18.99;100.00
9721;BME280;4899;42.644;23.366;2022-08-19T02:08:42;94085.91;;;19.19;100.00
9721;BME280;4899;42.644;23.366;2022-08-19T02:11:19;94086.28;;;19.21;100.00
9721;BME280;4899;42.644;23.366;2022-08-19T02:13:47;94085.16;;;19.19;100.00
9721;BME280;4899;42.644;23.366;2022-08-19T02:16:15;94089.63;;;19.18;100.00
9721;BME280;4899;42.644;23.366;2022-08-19T02:18:42;94089.25;;;19.20;100.00
9721;BME280;4899;42.644;23.366;2022-08-19T02:21:09;94088.91;;;19.21;100.00
9721;BME280;4899;42.644;23.366;2022-08-19T02:23:37;94092.63;;;19.20;100.00
9721;BME280;4899;42.644;23.366;2022-08-19T02:26:04;94047.38;;;18.91;100.00
9721;BME280;4899;42.644;23.366;2022-08-19T02:28:31;94092.97;;;19.19;100.00
9721;BME280;4899;42.644;23.366;2022-08-19T02:31:00;94085.16;;;19.15;100.00
9721;BME280;4899;42.644;23.366;2022-08-19T02:33:28;94087.66;;;19.04;100.00
9721;BME280;4899;42.644;23.366;2022-08-19T02:35:55;94091.81;;;19.09;100.00
9721;BME280;4899;42.644;23.366;2022-08-19T02:38:21;94092.50;;;19.02;100.00
9721;BME280;4899;42.644;23.366;2022-08-19T02:40:55;94093.59;;;18.98;100.00
9721;BME280;4899;42.644;23.366;2022-08-19T02:43:22;94095.44;;;18.94;100.00
9721;BME280;4899;42.644;23.366;2022-08-19T02:45:50;94097.28;;;18.90;100.00
9721;BME280;4899;42.644;23.366;2022-08-19T02:48:19;94084.91;;;18.83;100.00
9721;BME280;4899;42.644;23.366;2022-08-19T02:50:47;94088.97;;;18.77;100.00
9721;BME280;4899;42.644;23.366;2022-08-19T02:53:20;94084.91;;;18.80;100.00
9721;BME280;4899;42.644;23.366;2022-08-19T02:55:48;94108.81;;;18.89;100.00
9721;BME280;4899;42.644;23.366;2022-08-19T02:58:16;94057.19;;;18.61;100.00
9721;BME280;4899;42.644;23.366;2022-08-19T03:00:44;94090.91;;;18.84;100.00
9721;BME280;4899;42.644;23.366;2022-08-19T03:03:12;94111.44;;;18.92;100.00
9721;BME280;4899;42.644;23.366;2022-08-19T03:05:40;94090.13;;;18.83;100.00
9721;BME280;4899;42.644;23.366;2022-08-19T03:08:08;94105.47;;;18.92;100.00
9721;BME280;4899;42.644;23.366;2022-08-19T03:10:42;94106.19;;;18.89;100.00
9721;BME280;4899;42.644;23.366;2022-08-19T03:13:11;94079.59;;;18.65;100.00
9721;BME280;4899;42.644;23.366;2022-08-19T03:15:40;94099.81;;;18.83;100.00
9721;BME280;4899;42.644;23.366;2022-08-19T03:18:07;94093.06;;;18.78;100.00
9721;BME280;4899;42.644;23.366;2022-08-19T03:20:34;94063.09;;;18.54;100.00
9721;BME280;4899;42.644;23.366;2022-08-19T03:23:07;94097.88;;;18.72;100.00
9721;BME280;4899;42.644;23.366;2022-08-19T03:25:37;94057.78;;;18.40;100.00
9721;BME280;4899;42.644;23.366;2022-08-19T03:28:04;94077.25;;;18.57;100.00
9721;BME280;4899;42.644;23.366;2022-08-19T03:30:30;94093.34;;;18.62;100.00
9721;BME280;4899;42.644;23.366;2022-08-19T03:32:57;94087.72;;;18.60;100.00
9721;BME280;4899;42.644;23.366;2022-08-19T03:35:24;94094.44;;;18.61;100.00
9721;BME280;4899;42.644;23.366;2022-08-19T03:37:51;94094.44;;;18.61;100.00
9721;BME280;4899;42.644;23.366;2022-08-19T03:40:19;94090.75;;;18.62;100.00
9721;BME280;4899;42.644;23.366;2022-08-19T03:42:47;94096.59;;;18.56;100.00
9721;BME280;4899;42.644;23.366;2022-08-19T03:45:14;94098.94;;;18.64;100.00
9721;BME280;4899;42.644;23.366;2022-08-19T03:47:41;94107.16;;;18.66;100.00
9721;BME280;4899;42.644;23.366;2022-08-19T03:50:08;94111.25;;;18.67;100.00
9721;BME280;4899;42.644;23.366;2022-08-19T03:52:36;94112.00;;;18.68;100.00
9721;BME280;4899;42.644;23.366;2022-08-19T03:55:03;94120.56;;;18.68;100.00
9721;BME280;4899;42.644;23.366;2022-08-19T03:57:32;94080.16;;;18.48;100.00
9721;BME280;4899;42.644;23.366;2022-08-19T04:00:00;94120.22;;;18.73;100.00
9721;BME280;4899;42.644;23.366;2022-08-19T04:02:27;94123.97;;;18.76;100.00
9721;BME280;4899;42.644;23.366;2022-08-19T04:04:54;94088.38;;;18.50;100.00
9721;BME280;4899;42.644;23.366;2022-08-19T04:07:20;94139.97;;;18.74;100.00
9721;BME280;4899;42.644;23.366;2022-08-19T04:09:47;94134.75;;;18.74;100.00
9721;BME280;4899;42.644;23.366;2022-08-19T04:12:14;94134.38;;;18.72;100.00
9721;BME280;4899;42.644;23.366;2022-08-19T04:14:42;94129.50;;;18.67;100.00
9721;BME280;4899;42.644;23.366;2022-08-19T04:17:09;94149.22;;;18.68;100.00
9721;BME280;4899;42.644;23.366;2022-08-19T04:19:39;94143.63;;;18.66;100.00
9721;BME280;4899;42.644;23.366;2022-08-19T04:22:08;94151.47;;;18.70;100.00
9721;BME280;4899;42.644;23.366;2022-08-19T04:24:36;94151.88;;;18.75;100.00
9721;BME280;4899;42.644;23.366;2022-08-19T04:27:03;94143.34;;;18.79;100.00
9721;BME280;4899;42.644;23.366;2022-08-19T04:29:31;94146.72;;;18.83;100.00
9721;BME280;4899;42.644;23.366;2022-08-19T04:31:59;94146.06;;;18.89;100.00
9721;BME280;4899;42.644;23.366;2022-08-19T04:34:28;94146.84;;;18.97;100.00
9721;BME280;4899;42.644;23.366;2022-08-19T04:36:58;94142.78;;;19.03;100.00
9721;BME280;4899;42.644;23.366;2022-08-19T04:39:26;94139.50;;;19.10;100.00
9721;BME280;4899;42.644;23.366;2022-08-19T04:42:15;94135.72;;;19.03;100.00
9721;BME280;4899;42.644;23.366;2022-08-19T04:45:01;94131.75;;;19.20;100.00
9721;BME280;4899;42.644;23.366;2022-08-19T04:47:29;94137.00;;;19.27;100.00
9721;BME280;4899;42.644;23.366;2022-08-19T04:49:58;94126.56;;;19.31;100.00
9721;BME280;4899;42.644;23.366;2022-08-19T04:52:25;94122.81;;;19.25;100.00
9721;BME280;4899;42.644;23.366;2022-08-19T04:54:52;94109.78;;;19.28;100.00
9721;BME280;4899;42.644;23.366;2022-08-19T04:57:20;94145.69;;;19.49;100.00
9721;BME280;4899;42.644;23.366;2022-08-19T04:59:48;94141.94;;;19.43;100.00
9721;BME280;4899;42.644;23.366;2022-08-19T05:02:15;94153.53;;;19.49;100.00
9721;BME280;4899;42.644;23.366;2022-08-19T05:04:43;94159.91;;;19.55;100.00
9721;BME280;4899;42.644;23.366;2022-08-19T05:07:10;94154.38;;;19.64;100.00
9721;BME280;4899;42.644;23.366;2022-08-19T05:09:37;94138.66;;;19.57;100.00
9721;BME280;4899;42.644;23.366;2022-08-19T05:12:04;94156.28;;;19.78;100.00
9721;BME280;4899;42.644;23.366;2022-08-19T05:14:32;94155.56;;;19.77;100.00
9721;BME280;4899;42.644;23.366;2022-08-19T05:17:00;94147.03;;;19.87;100.00
9721;BME280;4899;42.644;23.366;2022-08-19T05:19:27;94154.53;;;20.00;100.00
9721;BME280;4899;42.644;23.366;2022-08-19T05:22:13;94148.22;;;20.08;100.00
9721;BME280;4899;42.644;23.366;2022-08-19T05:25:03;94151.59;;;20.12;100.00
9721;BME280;4899;42.644;23.366;2022-08-19T05:27:30;94145.63;;;20.08;100.00
9721;BME280;4899;42.644;23.366;2022-08-19T05:29:57;94134.81;;;20.13;100.00
9721;BME280;4899;42.644;23.366;2022-08-19T05:32:25;94158.41;;;20.41;100.00
9721;BME280;4899;42.644;23.366;2022-08-19T05:34:52;94153.94;;;20.45;100.00
9721;BME280;4899;42.644;23.366;2022-08-19T05:37:20;94152.09;;;20.56;100.00
9721;BME280;4899;42.644;23.366;2022-08-19T05:39:47;94161.81;;;20.67;100.00
9721;BME280;4899;42.644;23.366;2022-08-19T05:42:15;94166.31;;;20.77;100.00
9721;BME280;4899;42.644;23.366;2022-08-19T05:44:44;94161.84;;;20.92;100.00
9721;BME280;4899;42.644;23.366;2022-08-19T05:47:12;94156.59;;;21.02;100.00
9721;BME280;4899;42.644;23.366;2022-08-19T05:49:40;94154.00;;;21.09;100.00
9721;BME280;4899;42.644;23.366;2022-08-19T05:52:09;94162.94;;;21.23;100.00
9721;BME280;4899;42.644;23.366;2022-08-19T05:54:39;94158.88;;;21.36;100.00
9721;BME280;4899;42.644;23.366;2022-08-19T05:57:08;94128.19;;;21.22;100.00
9721;BME280;4899;42.644;23.366;2022-08-19T05:59:35;94147.25;;;21.44;100.00
9721;BME280;4899;42.644;23.366;2022-08-19T06:02:02;94161.03;;;21.69;100.00
9721;BME280;4899;42.644;23.366;2022-08-19T06:04:29;94160.25;;;21.79;100.00
9721;BME280;4899;42.644;23.366;2022-08-19T06:06:56;94173.69;;;21.92;100.00
9721;BME280;4899;42.644;23.366;2022-08-19T06:09:24;94166.91;;;22.02;100.00
9721;BME280;4899;42.644;23.366;2022-08-19T06:11:54;94177.41;;;22.09;100.00
9721;BME280;4899;42.644;23.366;2022-08-19T06:14:27;94175.84;;;22.22;100.00
9721;BME280;4899;42.644;23.366;2022-08-19T06:16:55;94164.59;;;22.25;100.00
9721;BME280;4899;42.644;23.366;2022-08-19T06:19:22;94175.72;;;22.44;100.00
9721;BME280;4899;42.644;23.366;2022-08-19T06:21:51;94170.13;;;22.41;100.00
9721;BME280;4899;42.644;23.366;2022-08-19T06:24:21;94179.00;;;22.62;100.00
9721;BME280;4899;42.644;23.366;2022-08-19T06:26:52;94178.91;;;22.76;100.00
9721;BME280;4899;42.644;23.366;2022-08-19T06:29:21;94177.00;;;22.87;100.00
9721;BME280;4899;42.644;23.366;2022-08-19T06:31:51;94176.19;;;22.94;100.00
9721;BME280;4899;42.644;23.366;2022-08-19T06:34:19;94179.84;;;23.07;100.00
9721;BME280;4899;42.644;23.366;2022-08-19T06:36:47;94161.88;;;23.06;100.00
9721;BME280;4899;42.644;23.366;2022-08-19T06:39:17;94183.00;;;23.32;100.00
9721;BME280;4899;42.644;23.366;2022-08-19T06:41:46;94178.78;;;23.42;100.00
9721;BME280;4899;42.644;23.366;2022-08-19T06:44:16;94167.03;;;23.54;100.00
9721;BME280;4899;42.644;23.366;2022-08-19T06:46:43;94178.63;;;23.63;100.00
9721;BME280;4899;42.644;23.366;2022-08-19T06:49:10;94175.88;;;23.74;100.00
9721;BME280;4899;42.644;23.366;2022-08-19T06:51:40;94140.31;;;23.66;100.00
9721;BME280;4899;42.644;23.366;2022-08-19T06:54:07;94174.19;;;23.91;100.00
9721;BME280;4899;42.644;23.366;2022-08-19T06:56:35;94123.91;;;23.58;100.00
9721;BME280;4899;42.644;23.366;2022-08-19T06:59:03;94182.19;;;24.14;100.00
9721;BME280;4899;42.644;23.366;2022-08-19T07:01:36;94175.69;;;24.22;100.00
9721;BME280;4899;42.644;23.366;2022-08-19T07:04:08;94180.81;;;24.37;100.00
9721;BME280;4899;42.644;23.366;2022-08-19T07:06:36;94171.78;;;24.38;100.00
9721;BME280;4899;42.644;23.366;2022-08-19T07:09:03;94197.16;;;24.51;100.00
9721;BME280;4899;42.644;23.366;2022-08-19T07:11:31;94193.66;;;24.62;100.00
9721;BME280;4899;42.644;23.366;2022-08-19T07:13:58;94192.34;;;24.73;100.00
9721;BME280;4899;42.644;23.366;2022-08-19T07:16:25;94181.75;;;24.80;100.00
9721;BME280;4899;42.644;23.366;2022-08-19T07:18:54;94150.00;;;24.64;100.00
9721;BME280;4899;42.644;23.366;2022-08-19T07:21:23;94191.25;;;24.98;100.00
9721;BME280;4899;42.644;23.366;2022-08-19T07:23:52;94170.00;;;24.85;100.00
9721;BME280;4899;42.644;23.366;2022-08-19T07:26:21;94181.44;;;24.98;100.00
9721;BME280;4899;42.644;23.366;2022-08-19T07:28:49;94191.34;;;25.18;100.00
9721;BME280;4899;42.644;23.366;2022-08-19T07:31:22;94188.84;;;25.34;100.00
9721;BME280;4899;42.644;23.366;2022-08-19T07:33:50;94183.56;;;25.34;100.00
9721;BME280;4899;42.644;23.366;2022-08-19T07:36:22;94177.25;;;25.28;100.00
9721;BME280;4899;42.644;23.366;2022-08-19T07:38:50;94176.22;;;25.45;100.00
9721;BME280;4899;42.644;23.366;2022-08-19T07:41:21;94183.47;;;25.61;99.21
9721;BME280;4899;42.644;23.366;2022-08-19T07:43:48;94177.47;;;25.60;99.12
9721;BME280;4899;42.644;23.366;2022-08-19T07:46:16;94170.31;;;25.61;94.77
9721;BME280;4899;42.644;23.366;2022-08-19T07:48:44;94137.78;;;25.48;94.92
9721;BME280;4899;42.644;23.366;2022-08-19T07:51:13;94169.72;;;25.73;94.44
9721;BME280;4899;42.644;23.366;2022-08-19T07:53:43;94191.50;;;25.97;92.40
9721;BME280;4899;42.644;23.366;2022-08-19T07:56:11;94188.00;;;26.03;89.74
9721;BME280;4899;42.644;23.366;2022-08-19T07:58:40;94165.53;;;25.95;86.71
9721;BME280;4899;42.644;23.366;2022-08-19T08:01:10;94193.94;;;26.27;85.17
9721;BME280;4899;42.644;23.366;2022-08-19T08:03:37;94191.19;;;26.34;90.09
9721;BME280;4899;42.644;23.366;2022-08-19T08:06:22;94191.69;;;26.46;86.62
9721;BME280;4899;42.644;23.366;2022-08-19T08:09:08;94170.50;;;26.49;84.26
9721;BME280;4899;42.644;23.366;2022-08-19T08:11:43;94189.75;;;26.66;82.93
9721;BME280;4899;42.644;23.366;2022-08-19T08:14:15;94178.94;;;26.77;81.04
9721;BME280;4899;42.644;23.366;2022-08-19T08:16:42;94177.16;;;26.90;84.44
9721;BME280;4899;42.644;23.366;2022-08-19T08:19:11;94178.69;;;27.07;79.40
9721;BME280;4899;42.644;23.366;2022-08-19T08:21:38;94189.31;;;27.20;78.80
9721;BME280;4899;42.644;23.366;2022-08-19T08:24:05;94162.25;;;27.16;75.31
9721;BME280;4899;42.644;23.366;2022-08-19T08:26:33;94152.25;;;27.23;74.09
9721;BME280;4899;42.644;23.366;2022-08-19T08:29:00;94157.28;;;27.34;74.85
9721;BME280;4899;42.644;23.366;2022-08-19T08:31:26;94179.44;;;27.69;73.82
9721;BME280;4899;42.644;23.366;2022-08-19T08:33:53;94174.22;;;27.82;72.24
9721;BME280;4899;42.644;23.366;2022-08-19T08:36:20;94178.88;;;27.91;68.10
9721;BME280;4899;42.644;23.366;2022-08-19T08:38:47;94178.50;;;28.05;69.05
9721;BME280;4899;42.644;23.366;2022-08-19T08:41:19;94173.22;;;28.17;66.99
9721;BME280;4899;42.644;23.366;2022-08-19T08:43:51;94175.09;;;28.33;68.23
9721;BME280;4899;42.644;23.366;2022-08-19T08:46:23;94166.09;;;28.31;68.27
9721;BME280;4899;42.644;23.366;2022-08-19T08:48:55;94165.91;;;28.51;65.63
9721;BME280;4899;42.644;23.366;2022-08-19T08:51:27;94154.34;;;28.44;61.04
9721;BME280;4899;42.644;23.366;2022-08-19T08:53:56;94167.28;;;28.68;59.51
9721;BME280;4899;42.644;23.366;2022-08-19T08:56:23;94163.88;;;28.80;56.80
9721;BME280;4899;42.644;23.366;2022-08-19T08:58:57;94161.97;;;28.93;53.83
9721;BME280;4899;42.644;23.366;2022-08-19T09:01:25;94158.69;;;29.02;52.38
9721;BME280;4899;42.644;23.366;2022-08-19T09:03:53;94156.88;;;29.12;54.77
9721;BME280;4899;42.644;23.366;2022-08-19T09:06:25;94147.31;;;29.27;53.84
9721;BME280;4899;42.644;23.366;2022-08-19T09:09:01;94161.25;;;29.40;52.29
9721;BME280;4899;42.644;23.366;2022-08-19T09:11:42;94156.91;;;29.46;52.00
9721;BME280;4899;42.644;23.366;2022-08-19T09:14:22;94154.22;;;29.59;49.08
9721;BME280;4899;42.644;23.366;2022-08-19T09:16:54;94149.72;;;29.68;49.70
9721;BME280;4899;42.644;23.366;2022-08-19T09:19:23;94139.97;;;29.65;49.10
9721;BME280;4899;42.644;23.366;2022-08-19T09:21:50;94150.59;;;29.87;50.94
9721;BME280;4899;42.644;23.366;2022-08-19T09:24:16;94151.16;;;30.04;49.96
9721;BME280;4899;42.644;23.366;2022-08-19T09:26:43;94130.34;;;30.02;46.42
9721;BME280;4899;42.644;23.366;2022-08-19T09:29:11;94144.16;;;30.19;46.70
9721;BME280;4899;42.644;23.366;2022-08-19T09:31:39;94140.31;;;30.20;45.90
9721;BME280;4899;42.644;23.366;2022-08-19T09:34:06;94130.38;;;30.34;45.39
9721;BME280;4899;42.644;23.366;2022-08-19T09:36:33;94137.09;;;30.56;48.55
9721;BME280;4899;42.644;23.366;2022-08-19T09:39:02;94125.66;;;30.69;44.95
9721;BME280;4899;42.644;23.366;2022-08-19T09:41:29;94120.53;;;30.74;45.08
9721;BME280;4899;42.644;23.366;2022-08-19T09:43:57;94110.31;;;30.73;44.03
9721;BME280;4899;42.644;23.366;2022-08-19T09:46:26;94132.66;;;30.93;44.44
9721;BME280;4899;42.644;23.366;2022-08-19T09:48:58;94132.22;;;30.95;43.70
9721;BME280;4899;42.644;23.366;2022-08-19T09:51:26;94133.69;;;30.96;43.58
9721;BME280;4899;42.644;23.366;2022-08-19T09:53:59;94139.78;;;31.15;43.95
9721;BME280;4899;42.644;23.366;2022-08-19T09:56:26;94132.59;;;31.25;42.56
9721;BME280;4899;42.644;23.366;2022-08-19T09:58:53;94132.44;;;31.28;42.66
9721;BME280;4899;42.644;23.366;2022-08-19T10:01:22;94114.56;;;31.38;41.65
9721;BME280;4899;42.644;23.366;2022-08-19T10:03:51;94128.31;;;31.55;40.61
9721;BME280;4899;42.644;23.366;2022-08-19T10:06:20;94121.22;;;31.61;41.29
9721;BME280;4899;42.644;23.366;2022-08-19T10:08:49;94114.09;;;31.67;41.50
9721;BME280;4899;42.644;23.366;2022-08-19T10:11:17;94101.81;;;31.69;41.46
9721;BME280;4899;42.644;23.366;2022-08-19T10:13:44;94113.81;;;31.83;42.12
9721;BME280;4899;42.644;23.366;2022-08-19T10:16:13;94113.78;;;31.92;44.23
9721;BME280;4899;42.644;23.366;2022-08-19T10:18:41;94098.41;;;31.96;42.71
9721;BME280;4899;42.644;23.366;2022-08-19T10:21:11;94112.97;;;32.19;41.29
9721;BME280;4899;42.644;23.366;2022-08-19T10:23:42;94109.88;;;32.30;41.44
9721;BME280;4899;42.644;23.366;2022-08-19T10:26:13;94105.28;;;32.30;40.45
9721;BME280;4899;42.644;23.366;2022-08-19T10:28:40;94113.44;;;32.27;40.08
9721;BME280;4899;42.644;23.366;2022-08-19T10:31:11;94097.44;;;32.18;41.09
9721;BME280;4899;42.644;23.366;2022-08-19T10:33:38;94096.88;;;32.13;40.63
9721;BME280;4899;42.644;23.366;2022-08-19T10:36:09;94094.38;;;32.10;40.53
9721;BME280;4899;42.644;23.366;2022-08-19T10:38:37;94058.06;;;31.89;41.53
9721;BME280;4899;42.644;23.366;2022-08-19T10:41:10;94093.00;;;32.24;39.92
9721;BME280;4899;42.644;23.366;2022-08-19T10:43:37;94087.97;;;32.35;40.07
9721;BME280;4899;42.644;23.366;2022-08-19T10:46:05;94088.34;;;32.52;40.55
9721;BME280;4899;42.644;23.366;2022-08-19T10:48:32;94090.16;;;32.69;39.96
9721;BME280;4899;42.644;23.366;2022-08-19T10:50:59;94073.84;;;32.77;39.94
9721;BME280;4899;42.644;23.366;2022-08-19T10:53:44;94087.66;;;32.99;39.42
9721;BME280;4899;42.644;23.366;2022-08-19T10:56:12;94086.38;;;33.09;39.05
9721;BME280;4899;42.644;23.366;2022-08-19T10:58:56;94084.81;;;33.17;39.03
9721;BME280;4899;42.644;23.366;2022-08-19T11:01:24;94077.94;;;33.49;38.42
9721;BME280;4899;42.644;23.366;2022-08-19T11:03:51;94084.22;;;33.90;38.66
9721;BME280;4899;42.644;23.366;2022-08-19T11:06:18;94079.66;;;34.55;37.32
9721;BME280;4899;42.644;23.366;2022-08-19T11:08:45;94091.75;;;36.30;35.93
9721;BME280;4899;42.644;23.366;2022-08-19T11:11:14;94088.03;;;38.51;34.11
9721;BME280;4899;42.644;23.366;2022-08-19T11:13:41;94098.91;;;40.57;30.89
9721;BME280;4899;42.644;23.366;2022-08-19T11:16:12;94082.66;;;42.19;28.76
9721;BME280;4899;42.644;23.366;2022-08-19T11:18:42;94092.72;;;42.90;27.65
9721;BME280;4899;42.644;23.366;2022-08-19T11:21:12;94096.38;;;44.29;26.67
9721;BME280;4899;42.644;23.366;2022-08-19T11:23:39;94087.09;;;45.09;25.81
9721;BME280;4899;42.644;23.366;2022-08-19T11:26:07;94099.97;;;45.53;25.25
9721;BME280;4899;42.644;23.366;2022-08-19T11:28:35;94097.88;;;45.74;24.42
9721;BME280;4899;42.644;23.366;2022-08-19T11:31:02;94093.38;;;45.92;24.31
9721;BME280;4899;42.644;23.366;2022-08-19T11:33:30;94099.38;;;46.51;23.42
9721;BME280;4899;42.644;23.366;2022-08-19T11:35:58;94094.44;;;45.96;23.99
9721;BME280;4899;42.644;23.366;2022-08-19T11:38:26;94071.94;;;45.14;23.84
9721;BME280;4899;42.644;23.366;2022-08-19T11:40:57;94068.31;;;44.83;24.57
9721;BME280;4899;42.644;23.366;2022-08-19T11:43:24;94075.66;;;44.67;24.44
9721;BME280;4899;42.644;23.366;2022-08-19T11:45:53;94075.84;;;44.12;24.62
9721;BME280;4899;42.644;23.366;2022-08-19T11:48:20;94012.09;;;43.43;24.89
9721;BME280;4899;42.644;23.366;2022-08-19T11:50:48;94069.88;;;44.63;24.99
9721;BME280;4899;42.644;23.366;2022-08-19T11:53:15;94070.75;;;44.94;24.07
9721;BME280;4899;42.644;23.366;2022-08-19T11:55:43;94017.78;;;44.44;24.60
9721;BME280;4899;42.644;23.366;2022-08-19T11:58:11;94065.56;;;44.75;23.99
9721;BME280;4899;42.644;23.366;2022-08-19T12:00:38;94071.84;;;44.63;24.08
9721;BME280;4899;42.644;23.366;2022-08-19T12:03:14;94066.34;;;44.27;24.44
9721;BME280;4899;42.644;23.366;2022-08-19T12:05:41;94051.94;;;43.90;24.62
9721;BME280;4899;42.644;23.366;2022-08-19T12:08:08;94051.16;;;44.52;23.87
9721;BME280;4899;42.644;23.366;2022-08-19T12:10:37;94050.53;;;45.10;24.29
9721;BME280;4899;42.644;23.366;2022-08-19T12:13:04;94050.19;;;45.73;24.30
9721;BME280;4899;42.644;23.366;2022-08-19T12:15:35;94042.59;;;46.10;23.06
9721;BME280;4899;42.644;23.366;2022-08-19T12:18:03;94047.66;;;46.28;23.15
9721;BME280;4899;42.644;23.366;2022-08-19T12:20:34;94032.78;;;46.37;23.32
9721;BME280;4899;42.644;23.366;2022-08-19T12:23:01;94038.72;;;46.58;22.75
9721;BME280;4899;42.644;23.366;2022-08-19T12:25:28;94038.13;;;47.31;22.41
9721;BME280;4899;42.644;23.366;2022-08-19T12:27:56;94015.59;;;48.30;21.51
9721;BME280;4899;42.644;23.366;2022-08-19T12:30:23;94039.16;;;49.12;21.63
9721;BME280;4899;42.644;23.366;2022-08-19T12:32:49;94043.78;;;50.09;21.24
9721;BME280;4899;42.644;23.366;2022-08-19T12:35:17;94037.03;;;50.30;20.05
9721;BME280;4899;42.644;23.366;2022-08-19T12:37:47;94042.38;;;50.18;20.69
9721;BME280;4899;42.644;23.366;2022-08-19T12:40:15;94031.31;;;50.64;20.84
9721;BME280;4899;42.644;23.366;2022-08-19T12:42:43;94022.69;;;51.06;20.64
9721;BME280;4899;42.644;23.366;2022-08-19T12:45:11;94030.75;;;51.04;20.23
9721;BME280;4899;42.644;23.366;2022-08-19T12:47:38;94024.69;;;51.06;19.58
9721;BME280;4899;42.644;23.366;2022-08-19T12:50:06;94020.59;;;51.26;19.86
9721;BME280;4899;42.644;23.366;2022-08-19T12:52:35;94029.81;;;51.41;19.62
9721;BME280;4899;42.644;23.366;2022-08-19T12:55:06;94021.50;;;51.10;19.53
9721;BME280;4899;42.644;23.366;2022-08-19T12:57:34;94017.19;;;50.77;20.06
9721;BME280;4899;42.644;23.366;2022-08-19T13:00:05;94017.38;;;49.58;19.94
9721;BME280;4899;42.644;23.366;2022-08-19T13:02:34;94011.63;;;48.65;20.85
9721;BME280;4899;42.644;23.366;2022-08-19T13:05:02;93964.47;;;48.65;20.16
9721;BME280;4899;42.644;23.366;2022-08-19T13:08:17;93950.56;;;49.24;20.13
9721;BME280;4899;42.644;23.366;2022-08-19T13:14:30;93996.94;;;47.19;21.25
9721;BME280;4899;42.644;23.366;2022-08-19T13:17:12;93962.38;;;46.41;22.13